Date,TemperatureHighF,TemperatureAvgF,TemperatureLowF,DewpointHighF,DewpointAvgF,DewpointLowF,HumidityHigh,HumidityAvg,HumidityLow,PressureMaxIn,PressureMinIn,WindSpeedMaxMPH,WindSpeedAvgMPH,GustSpeedMaxMPH,PrecipitationSumIn
2013-1-1,60,49,43,56,41,28,98,78,47,30.10,29.94,10,1,10,0.27
2013-1-2,51,45,40,50,42,38,98,91,78,30.18,29.91,13,2,13,0.34
2013-1-3,45,40,33,38,36,32,97,87,67,30.26,30.13,9,1,9,0.00
2013-1-4,51,39,28,34,26,21,97,63,34,30.32,30.19,15,3,15,0.00
2013-1-5,51,40,28,31,25,22,83,57,36,30.40,30.27,10,2,10,0.00
2013-1-6,48,44,39,41,36,28,96,75,56,30.27,30.05,5,0,6,0.01
2013-1-7,51,42,34,35,32,30,95,71,49,30.43,30.17,19,2,19,0.00
2013-1-8,56,45,35,42,37,31,91,74,53,30.46,30.36,6,0,6,0.00
2013-1-9,67,54,40,52,46,38,93,76,55,30.44,30.35,6,1,8,0.00
2013-1-10,56,55,54,51,50,50,87,85,83,30.42,30.40,3,0,3,0.00
2013-1-12,64,62,60,62,60,58,97,95,93,30.10,30.09,5,1,5,0.01
2013-1-13,75,64,53,63,58,53,99,85,60,30.13,30.04,12,2,12,0.01
2013-1-14,72,66,59,64,61,56,91,84,76,30.14,30.06,10,1,10,0.00
2013-1-15,66,48,45,61,47,44,99,96,84,30.21,30.04,18,3,18,0.01
2013-1-16,50,47,44,50,46,44,99,99,98,30.06,29.97,11,1,11,0.26
2013-1-17,51,47,33,51,46,32,99,97,92,30.14,29.86,32,5,32,1.13
2013-1-18,46,37,32,34,29,22,99,75,40,30.54,30.13,13,2,13,0.08
2013-1-19,55,42,28,37,28,25,89,61,32,30.51,30.16,9,1,9,0.00
2013-1-20,64,51,41,37,34,29,75,54,31,30.16,29.97,16,2,16,0.00
2013-1-21,59,48,39,33,29,19,74,49,32,30.07,29.86,15,2,15,0.00
2013-1-22,44,34,27,20,7,-2,45,32,18,30.29,29.95,20,4,20,0.00
2013-1-23,40,30,20,20,9,2,65,42,29,30.39,30.06,12,1,12,0.00
2013-1-24,37,32,24,27,16,2,75,51,25,30.51,29.97,23,4,23,0.00
2013-1-25,38,26,20,32,16,5,96,67,42,30.54,30.12,11,1,11,0.07
2013-1-26,41,30,25,33,28,23,97,91,67,30.41,30.10,8,1,8,0.05
2013-1-27,40,32,26,29,28,26,97,84,62,30.60,30.40,11,1,11,0.04
2013-1-28,53,43,33,48,37,28,92,80,65,30.52,30.23,10,1,10,0.04
2013-1-29,74,59,47,59,53,46,95,80,56,30.24,30.06,14,2,14,0.00
2013-1-30,72,67,60,65,62,57,95,86,74,30.06,29.38,25,6,25,0.21
2013-1-31,62,47,37,60,31,19,93,56,30,30.01,29.46,25,6,25,0.10
2013-2-1,41,36,27,29,14,2,63,42,23,30.39,29.89,25,6,25,0.00
2013-2-2,45,34,19,37,14,7,85,47,26,30.41,30.03,11,2,16,0.00
2013-2-3,50,42,36,37,31,26,91,66,42,30.04,29.85,18,3,18,0.00
2013-2-4,48,39,28,28,24,21,82,58,37,30.15,29.98,10,1,10,0.00
2013-2-5,62,49,39,39,34,28,75,57,36,30.02,29.86,13,2,13,0.00
2013-2-6,62,50,38,37,31,22,86,51,22,30.27,29.96,11,2,14,0.00
2013-2-7,48,43,38,43,38,33,96,85,66,30.30,29.96,19,5,19,0.34
2013-2-8,55,46,40,46,40,29,96,83,56,30.05,29.79,20,6,20,0.62
2013-2-9,52,42,32,29,23,17,82,51,26,30.35,30.04,14,3,19,0.00
2013-2-10,54,42,31,41,24,18,88,51,28,30.49,30.20,10,2,10,0.06
2013-2-11,63,57,45,60,55,41,98,91,85,30.20,29.91,16,3,16,0.05
2013-2-12,60,54,47,54,37,26,97,58,27,30.07,29.89,13,2,13,0.00
2013-2-13,51,46,44,47,43,34,98,91,52,29.95,29.60,18,2,18,0.17
2013-2-14,51,43,34,38,34,30,94,72,50,30.07,29.82,11,1,11,0.00
2013-2-15,62,48,34,40,34,31,91,63,32,30.09,29.92,13,1,13,0.00
2013-2-16,47,37,31,36,32,26,97,86,65,29.96,29.81,14,3,14,0.19
2013-2-17,37,31,26,26,13,6,81,51,28,30.29,29.92,26,6,26,0.00
2013-2-18,51,37,21,27,17,9,83,46,26,30.42,30.26,10,1,10,0.06
2013-2-19,53,44,36,50,40,27,96,83,63,30.26,29.85,19,3,19,0.09
2013-2-20,52,43,34,41,21,13,96,44,23,30.13,29.95,19,3,19,0.00
2013-2-21,55,42,28,23,18,14,71,41,22,30.25,30.11,15,2,15,0.00
2013-2-22,43,36,32,36,32,22,97,87,43,30.35,30.12,14,2,14,0.53
2013-2-23,43,40,36,42,39,35,98,97,97,30.12,29.81,11,2,11,0.79
2013-2-24,62,50,42,46,38,26,99,69,28,30.03,29.78,13,2,13,0.10
2013-2-25,47,38,34,30,25,20,69,58,46,30.22,30.02,21,4,21,0.00
2013-2-26,60,46,36,60,43,26,98,89,64,30.13,29.54,25,5,25,1.16
2013-2-27,59,50,43,46,41,37,98,75,48,29.78,29.62,15,2,15,0.00
2013-2-28,50,43,38,40,33,26,93,68,41,29.85,29.69,17,2,17,0.00
2013-3-1,49,40,30,32,29,27,88,65,43,29.91,29.83,15,3,15,0.00
2013-3-2,47,39,30,30,26,20,87,61,42,29.92,29.80,15,2,15,0.00
2013-3-3,45,36,28,23,20,18,70,54,39,29.98,29.84,19,4,19,0.00
2013-3-4,50,38,27,19,17,13,69,45,24,30.11,29.97,19,3,19,0.00
2013-3-5,50,44,37,45,34,17,97,71,36,30.08,29.55,17,1,17,0.34
2013-3-6,50,43,38,49,33,26,99,70,51,30.01,29.49,30,8,30,0.01
2013-3-7,51,42,34,31,30,27,80,62,45,30.23,30.01,18,5,18,0.00
2013-3-8,54,44,32,29,26,23,79,52,31,30.28,30.13,20,5,20,0.00
2013-3-9,62,48,34,31,28,26,73,48,27,30.33,30.22,14,2,14,0.00
2013-3-10,67,53,39,33,27,19,68,40,18,30.31,30.19,14,1,14,0.00
2013-3-11,69,56,42,55,45,26,89,67,37,30.24,29.92,18,3,18,0.00
2013-3-12,71,62,52,63,54,33,96,77,45,29.94,29.73,20,5,20,0.41
2013-3-13,57,48,37,34,27,20,82,47,26,30.12,29.92,22,5,22,0.00
2013-3-14,52,41,30,22,19,17,63,42,27,30.24,30.10,22,5,22,0.00
2013-3-15,62,48,31,36,28,20,77,48,31,30.18,29.89,14,2,14,0.00
2013-3-16,78,64,51,49,44,36,65,49,34,29.90,29.65,19,3,19,0.00
2013-3-17,67,54,42,53,44,38,95,71,44,30.15,29.81,22,5,22,0.00
2013-3-18,44,41,38,42,40,37,97,96,90,30.18,29.88,19,3,19,0.31
2013-3-19,66,52,41,48,35,14,99,64,21,30.00,29.81,17,4,20,0.01
2013-3-20,55,48,43,23,15,9,45,27,19,30.11,29.77,13,2,13,0.00
2013-3-21,45,41,37,31,22,10,73,49,26,29.80,29.71,20,5,20,0.00
2013-3-22,45,44,44,23,22,20,43,40,38,30.02,30.00,3,0,3,0.00
2013-3-23,54,46,40,31,26,20,64,46,34,30.04,29.90,9,1,9,0.00
2013-3-24,44,40,36,38,35,28,96,83,58,29.93,29.55,19,4,24,0.65
2013-3-25,48,40,36,38,31,22,97,72,39,29.81,29.55,26,4,26,0.00
2013-3-26,48,42,34,30,27,25,75,57,44,30.10,29.81,11,4,15,0.00
2013-3-27,51,42,32,29,25,21,82,53,32,30.22,30.10,24,5,24,0.00
2013-3-28,55,44,31,29,25,23,78,50,29,30.29,30.14,21,4,21,0.00
2013-3-29,58,47,33,32,26,24,84,47,26,30.33,30.17,16,2,16,0.00
2013-3-30,65,55,45,45,37,26,73,52,29,30.24,30.08,12,1,12,0.00
2013-3-31,68,58,48,57,51,42,97,80,64,30.09,29.80,14,2,17,0.32
2013-4-1,72,62,55,55,47,38,98,65,31,29.93,29.79,21,3,21,0.12
2013-4-2,60,51,41,40,29,23,60,43,27,30.14,29.93,20,2,20,0.00
2013-4-3,60,51,43,29,21,16,46,31,22,30.28,30.11,16,3,16,0.00
2013-4-4,51,43,39,40,33,22,96,71,32,30.33,29.89,25,5,25,1.17
2013-4-5,62,48,40,48,43,38,97,83,56,30.00,29.86,13,2,13,0.02
2013-4-6,64,54,45,47,34,22,95,49,28,30.26,30.00,21,3,21,0.00
2013-4-7,73,57,37,50,40,34,89,58,33,30.27,30.10,7,2,13,0.00
2013-4-8,79,67,55,58,54,50,94,66,40,30.17,30.04,11,2,11,0.00
2013-4-9,84,72,59,61,58,55,96,65,39,30.17,30.04,11,2,12,0.00
2013-4-10,87,74,63,62,60,58,87,63,39,30.09,29.92,15,2,15,0.00
2013-4-11,82,72,62,68,62,58,94,72,48,29.98,29.78,14,2,14,0.00
2013-4-12,81,72,66,69,64,48,96,76,47,29.80,29.59,17,3,17,0.39
2013-4-13,75,65,54,49,42,38,58,43,27,29.99,29.74,15,2,15,0.00
2013-4-14,80,67,50,54,45,37,84,49,23,30.08,29.99,9,1,9,0.00
2013-4-15,71,66,60,59,56,51,88,73,60,30.18,29.99,17,2,18,0.01
2013-4-16,76,66,58,63,59,57,98,80,56,30.28,30.18,8,1,8,0.00
2013-4-17,81,71,60,66,62,58,97,77,55,30.22,30.08,8,1,8,0.00
2013-4-18,79,70,61,64,61,58,95,73,54,30.18,30.02,15,2,15,0.00
2013-4-19,84,72,65,69,66,62,98,83,57,30.03,29.70,23,3,23,0.00
2013-4-20,65,56,49,64,42,33,98,63,34,30.26,29.81,17,2,17,0.00
2013-4-21,60,52,43,43,41,39,93,69,47,30.47,30.26,21,4,21,0.00
2013-4-22,60,50,38,46,39,32,87,69,45,30.46,30.24,19,4,19,0.00
2013-4-23,66,55,47,52,48,45,93,79,58,30.26,30.11,16,2,16,0.00
2013-4-24,76,64,51,57,54,49,95,71,47,30.15,29.96,13,2,13,0.00
2013-4-25,71,62,54,57,48,41,86,61,37,30.25,30.00,11,2,11,0.00
2013-4-26,72,62,53,54,43,33,97,58,25,30.41,30.25,15,1,15,0.00
2013-4-27,74,63,52,52,46,40,81,56,33,30.37,30.24,8,1,8,0.00
2013-4-28,63,58,55,56,51,43,97,77,61,30.26,30.08,14,1,14,0.00
2013-4-29,84,63,55,82,61,54,98,94,74,30.09,29.95,10,0,10,2.01
2013-4-30,66,62,58,61,60,55,99,92,79,30.15,29.98,11,1,11,0.00
2013-5-1,61,59,57,58,57,55,96,92,87,30.30,30.13,21,3,21,0.00
2013-5-2,64,59,56,58,56,53,96,90,81,30.30,30.24,16,4,16,0.00
2013-5-3,69,59,51,56,51,44,94,76,52,30.25,30.14,20,4,20,0.00
2013-5-4,64,56,50,53,49,44,90,79,64,30.19,30.05,23,6,23,0.00
2013-5-5,60,56,50,57,52,47,92,88,82,30.08,29.95,23,6,23,0.00
2013-5-6,70,61,57,65,59,55,98,94,80,29.98,29.80,19,3,19,1.11
2013-5-7,71,60,52,59,53,48,98,79,45,29.93,29.83,8,1,8,0.00
2013-5-8,74,62,54,62,56,52,97,82,59,30.00,29.91,12,0,12,0.26
2013-5-9,79,67,55,62,58,55,99,75,46,30.05,29.96,10,1,10,0.01
2013-5-10,86,75,60,64,60,56,88,62,42,30.05,29.92,9,1,9,0.00
2013-5-11,83,74,68,67,63,59,84,69,50,29.95,29.77,12,2,12,0.00
2013-5-12,72,67,57,64,51,36,91,60,36,30.00,29.77,12,3,12,0.00
2013-5-13,65,58,49,43,37,31,72,48,30,30.16,30.00,16,2,16,0.00
2013-5-14,70,59,43,44,40,34,85,51,31,30.25,30.07,9,1,9,0.00
2013-5-15,88,72,56,64,56,42,78,58,41,30.07,29.88,9,1,9,0.00
2013-5-16,86,76,66,65,61,57,82,62,39,29.97,29.88,9,1,9,0.00
2013-5-17,89,77,66,66,63,59,91,64,40,30.06,29.96,10,1,10,0.00
2013-5-18,80,73,65,69,65,62,96,78,59,30.13,30.05,14,1,14,0.26
2013-5-19,78,70,67,71,67,66,98,90,71,30.13,30.04,13,1,13,0.73
2013-5-20,77,70,67,71,68,67,98,94,79,30.10,30.03,8,1,8,0.34
2013-5-25,70,62,58,51,49,43,74,64,44,30.18,30.13,0,0,0,0.00
2013-5-26,72,62,53,54,46,39,72,57,37,30.27,30.16,9,0,9,0.00
2013-5-27,80,69,56,58,52,48,82,57,34,30.26,30.15,11,0,11,0.00
2013-5-28,84,74,62,68,64,58,93,71,53,30.24,30.13,10,1,10,0.00
2013-5-29,85,76,65,67,64,62,93,70,51,30.23,30.14,10,1,10,0.00
2013-5-30,86,76,63,69,65,60,97,70,44,30.25,30.15,8,1,8,0.00
2013-5-31,87,78,67,70,68,65,96,71,50,30.21,30.08,8,1,8,0.00
2013-6-1,87,78,68,70,67,63,95,71,46,30.13,30.00,9,1,9,0.00
2013-6-2,87,78,69,70,67,63,93,72,47,30.05,29.88,8,2,11,0.00
2013-6-3,83,74,67,74,70,65,97,90,71,29.95,29.81,13,1,13,0.36
2013-6-4,80,72,65,68,65,62,98,79,60,30.08,29.91,16,2,16,0.00
2013-6-5,80,73,64,64,60,56,92,67,46,30.12,29.99,15,2,15,0.00
2013-6-6,77,71,66,72,67,59,98,89,64,30.02,29.81,12,2,12,1.12
2013-6-7,77,71,69,75,70,68,99,97,92,29.83,29.42,15,2,19,3.81
2013-6-8,83,74,68,73,70,66,99,88,68,30.08,29.80,8,1,8,0.06
2013-6-9,89,78,68,74,71,68,98,82,58,30.14,30.04,8,1,8,0.36
2013-6-10,83,75,71,78,73,70,98,93,78,30.08,29.88,14,2,14,0.65
2013-6-11,84,76,70,72,68,65,95,77,54,29.94,29.88,13,2,13,0.00
2013-6-12,89,80,67,75,70,65,94,74,58,29.96,29.84,5,1,7,0.00
2013-6-13,95,81,68,78,72,63,93,76,44,29.84,29.58,51,1,51,0.06
2013-6-14,80,72,63,67,60,57,93,68,46,30.00,29.71,14,3,14,0.00
2013-6-15,83,73,61,65,61,57,94,69,45,30.11,29.99,7,1,7,0.00
2013-6-16,86,77,66,70,64,56,75,65,55,30.12,29.99,11,1,11,0.00
2013-6-17,85,77,71,74,69,64,89,76,59,30.02,29.90,8,1,8,0.00
2013-6-18,84,75,69,74,71,68,98,87,68,29.95,29.73,13,1,13,1.80
2013-6-19,80,73,66,69,67,63,98,83,63,30.10,29.84,13,2,13,0.01
2013-6-20,81,73,64,67,63,56,96,73,51,30.22,30.10,14,2,14,0.00
2013-6-21,82,72,59,68,59,50,91,65,38,30.24,30.16,11,1,11,0.00
2013-6-22,79,73,70,72,70,68,97,90,77,30.18,30.09,16,2,16,0.12
2013-6-23,83,75,69,75,72,68,98,89,71,30.20,30.11,8,0,8,0.15
2013-6-24,87,78,71,76,73,70,98,86,64,30.19,30.07,11,1,11,0.00
2013-6-25,89,77,70,77,72,68,96,84,58,30.12,29.99,9,1,9,0.00
2013-6-26,89,77,69,76,72,66,97,85,62,30.02,29.88,27,1,27,0.30
2013-6-27,89,77,67,77,72,67,98,86,61,29.91,29.71,9,1,9,0.01
2013-6-28,91,79,71,76,73,70,98,83,55,29.73,29.56,14,1,14,0.80
2013-6-29,86,77,69,76,72,68,99,87,67,29.71,29.59,7,1,7,0.66
2013-6-30,86,77,71,76,73,70,98,89,68,29.85,29.69,14,2,14,0.50
2013-7-1,82,76,70,76,72,69,98,91,75,29.98,29.82,16,2,16,0.64
2013-7-2,77,73,71,74,72,70,98,96,90,30.17,29.97,10,2,10,0.88
2013-7-3,86,77,73,78,74,71,98,90,71,30.23,30.14,14,2,14,0.01
2013-7-4,88,80,74,76,73,68,97,81,55,30.26,30.16,17,2,17,0.00
2013-7-5,90,80,73,77,74,72,98,81,57,30.26,30.14,10,2,10,0.00
2013-7-6,88,80,74,78,73,70,97,82,62,30.23,30.10,11,1,13,0.10
2013-7-7,89,80,71,76,73,69,97,80,62,30.17,30.04,9,1,9,0.00
2013-7-8,87,78,72,77,74,70,97,86,68,30.15,30.07,13,1,13,0.03
2013-7-9,87,77,72,78,74,70,98,91,69,30.14,30.05,9,1,9,0.13
2013-7-10,87,77,74,78,75,72,97,92,72,30.09,29.93,11,1,11,0.51
2013-7-11,84,75,72,76,73,71,98,93,75,29.97,29.86,7,1,7,0.40
2013-7-12,77,73,72,74,71,70,99,95,86,30.00,29.85,10,1,10,0.17
2013-7-13,79,73,71,76,72,70,98,96,89,30.15,29.99,10,2,10,0.34
2013-7-14,87,77,71,78,73,70,98,90,62,30.28,30.15,14,2,14,0.28
2013-7-15,89,80,72,76,73,70,98,81,57,30.30,30.22,9,1,10,0.01
2013-7-16,92,80,72,78,73,67,97,79,53,30.26,30.15,16,1,16,1.74
2013-7-17,91,83,75,80,75,71,98,79,53,30.20,30.08,11,1,11,0.00
2013-7-18,95,83,75,80,77,74,97,83,55,30.11,30.01,5,0,5,0.26
2013-7-19,90,82,75,78,75,72,96,80,61,30.08,29.96,10,1,10,0.00
2013-7-20,81,77,75,75,73,72,93,90,82,30.02,29.98,7,1,7,0.00
2013-7-21,84,74,72,77,72,70,97,93,81,29.95,29.89,7,1,7,0.85
2013-7-22,86,78,72,77,74,71,98,88,72,29.94,29.80,6,0,6,0.00
2013-7-23,88,81,74,76,74,72,94,79,62,29.83,29.70,9,1,9,0.00
2013-7-24,92,81,72,76,72,69,95,77,54,29.82,29.70,17,1,17,0.11
2013-7-25,80,74,71,71,70,69,97,88,72,29.95,29.79,10,1,10,0.21
2013-7-26,84,78,72,69,68,65,86,73,54,30.04,30.01,4,0,4,0.00
2013-7-27,86,75,68,74,70,67,97,84,58,30.04,29.92,7,1,10,0.30
2013-7-28,86,77,70,74,71,69,97,83,61,29.98,29.90,8,1,8,0.00
2013-7-29,85,77,70,73,70,67,96,79,58,30.13,29.97,10,1,11,0.08
2013-7-30,87,77,66,70,66,62,87,71,51,30.20,30.11,10,1,10,0.00
2013-7-31,84,78,71,75,72,69,95,84,70,30.12,29.99,10,1,10,0.51
2013-8-1,83,75,71,76,72,69,97,90,77,30.00,29.84,9,0,11,0.06
2013-8-2,88,79,68,74,72,67,96,79,59,30.00,29.88,7,1,7,0.00
2013-8-3,89,79,72,78,74,71,96,85,58,30.00,29.88,8,1,8,0.18
2013-8-4,82,76,70,74,69,64,97,80,55,30.01,29.86,12,1,12,0.01
2013-8-5,84,75,66,69,65,60,91,72,49,30.08,29.98,10,1,10,0.00
2013-8-6,83,75,67,72,68,65,96,79,61,30.05,29.98,9,1,9,0.12
2013-8-7,86,78,70,72,69,67,92,76,55,30.08,30.00,9,1,9,0.00
2013-8-8,89,80,71,75,72,70,95,78,57,30.05,29.97,8,1,8,0.00
2013-8-9,91,82,75,78,75,73,94,80,61,30.04,29.96,8,1,8,0.00
2013-8-10,92,80,73,79,75,72,97,84,60,30.08,29.98,19,1,19,0.43
2013-8-11,92,81,72,78,75,71,98,82,59,30.09,29.98,6,0,6,0.01
2013-8-12,92,83,75,77,74,71,96,77,53,30.02,29.91,9,1,9,0.00
2013-8-13,89,79,72,78,74,71,96,86,65,29.94,29.75,11,1,11,0.23
2013-8-14,76,72,64,73,67,60,96,83,74,30.07,29.80,9,1,9,0.00
2013-8-15,76,67,61,61,59,56,87,75,54,30.14,30.05,13,1,13,0.00
2013-8-16,71,67,61,63,61,58,93,82,67,30.16,30.07,12,1,12,0.00
2013-8-17,72,68,65,71,66,61,97,93,85,30.15,30.09,10,1,10,0.31
2013-8-18,82,74,69,72,70,66,98,88,71,30.18,30.10,7,1,7,0.01
2013-8-19,73,70,67,71,68,65,96,94,90,30.17,30.08,8,0,8,0.23
2013-8-20,82,76,70,75,72,69,97,88,74,30.17,30.09,8,0,8,0.00
2013-8-21,88,76,70,77,72,69,97,90,67,30.21,30.09,16,0,16,0.22
2013-8-22,87,78,70,77,72,69,98,85,61,30.13,29.97,8,1,8,0.01
2013-8-23,88,78,70,76,72,68,97,83,61,30.04,29.90,9,1,9,0.00
2013-8-24,81,73,65,68,63,59,92,72,48,30.28,30.03,15,2,15,0.00
2013-8-25,79,70,62,65,60,54,95,73,44,30.37,30.27,15,2,15,0.00
2013-8-26,82,70,57,63,59,55,95,70,42,30.30,30.10,9,0,9,0.00
2013-8-27,88,75,63,74,67,58,88,75,58,30.11,29.94,6,1,6,0.00
2013-8-28,85,78,71,77,73,70,95,85,71,29.97,29.85,4,0,4,0.00
2013-8-29,86,80,74,76,73,71,92,80,62,29.99,29.82,13,2,13,0.00
2013-8-30,86,76,66,71,68,63,96,77,48,30.04,29.92,10,1,10,0.00
2013-8-31,88,78,67,74,70,66,97,78,59,29.96,29.84,10,1,10,0.00
2013-9-1,91,79,71,79,73,69,96,83,61,29.89,29.75,12,1,12,1.43
2013-9-2,88,78,70,77,73,69,97,86,64,29.88,29.78,5,0,5,0.00
2013-9-3,87,78,72,79,74,70,95,87,67,29.92,29.78,5,0,5,0.05
2013-9-4,86,76,68,73,70,64,96,83,63,30.06,29.91,9,1,9,0.00
2013-9-5,87,77,68,73,67,56,96,74,36,30.07,30.00,10,0,10,0.00
2013-9-6,82,74,66,66,62,58,88,69,52,30.15,30.05,13,1,13,0.00
2013-9-7,83,72,61,66,63,59,93,74,49,30.11,29.96,7,1,7,0.00
2013-9-8,87,76,66,67,64,59,90,68,40,29.97,29.88,10,1,10,0.00
2013-9-9,87,77,67,71,68,62,89,73,51,30.13,29.97,13,1,13,0.00
2013-9-10,90,79,69,74,69,66,96,75,46,30.22,30.13,10,1,10,0.00
2013-9-11,90,78,69,73,69,65,92,74,46,30.19,30.05,9,1,9,0.00
2013-9-12,90,77,71,78,70,67,96,81,56,30.06,29.79,12,1,12,0.58
2013-9-13,84,75,70,70,65,54,96,72,47,29.86,29.73,13,1,13,0.00
2013-9-14,76,68,60,57,53,50,77,61,46,30.12,29.86,9,2,17,0.00
2013-9-15,80,68,57,63,59,53,93,73,52,30.22,30.10,7,1,8,0.00
2013-9-16,84,74,68,73,66,61,96,76,46,30.16,30.02,17,2,17,0.22
2013-9-17,74,68,60,62,56,51,86,69,46,30.29,30.16,18,3,18,0.00
2013-9-18,73,62,51,56,52,49,93,72,45,30.29,30.16,9,1,12,0.00
2013-9-19,77,67,55,64,58,52,92,76,57,30.18,30.06,3,0,6,0.00
2013-9-20,68,66,63,66,63,59,96,89,73,30.08,29.95,8,1,8,0.33
2013-9-21,78,70,65,72,68,64,96,92,78,29.96,29.71,11,1,11,0.49
2013-9-22,76,68,63,67,62,57,97,81,58,29.88,29.67,16,2,16,2.38
2013-9-23,72,63,55,58,55,51,91,75,53,30.06,29.88,9,1,9,0.00
2013-9-24,74,64,55,61,57,53,94,79,58,30.09,29.93,5,0,5,0.00
2013-9-25,74,64,55,63,59,54,96,83,62,29.95,29.85,7,0,7,0.00
2013-9-26,75,67,59,62,58,52,95,75,46,30.01,29.85,14,1,14,0.00
2013-9-27,72,64,56,61,57,54,96,80,59,30.16,30.01,16,2,16,0.00
2013-9-29,65,62,61,58,55,54,86,78,71,30.04,30.03,4,0,4,0.00
2013-9-30,74,63,55,62,56,52,97,80,49,30.08,29.98,8,0,8,0.00
2013-10-1,80,68,55,65,59,53,96,75,50,30.12,30.01,4,0,6,0.00
2013-10-2,83,72,60,65,61,58,93,72,47,30.12,30.03,7,1,7,0.00
2013-10-3,85,73,62,67,64,59,92,73,50,30.12,30.04,6,0,6,0.00
2013-10-4,85,74,64,70,65,62,96,77,51,30.12,30.03,6,0,6,0.00
2013-10-5,88,76,64,70,66,62,94,72,47,30.10,30.01,7,1,7,0.00
2013-10-6,83,73,66,73,69,64,96,87,65,30.05,29.92,10,1,10,0.01
2013-10-7,75,72,65,72,70,61,96,94,88,29.96,29.83,10,1,10,0.63
2013-10-8,65,59,55,62,52,47,94,78,62,30.17,29.95,13,3,34,0.08
2013-10-9,62,58,55,57,54,51,95,85,78,30.16,30.06,15,3,15,0.02
2013-10-10,61,57,54,59,55,52,96,94,92,30.06,29.92,13,3,13,0.12
2013-10-11,68,62,58,63,60,58,97,93,82,29.96,29.89,9,2,9,0.01
2013-10-12,68,64,62,65,62,60,96,93,89,30.06,29.93,8,1,8,0.00
2013-10-13,68,64,62,64,62,61,97,94,89,30.17,30.05,11,1,11,0.04
2013-10-14,66,62,58,63,61,56,97,94,88,30.21,30.15,13,2,13,0.05
2013-10-15,58,56,54,56,55,53,97,97,96,30.18,30.13,5,0,5,0.00
2013-10-21,65,57,55,52,50,49,84,78,56,30.04,29.99,1,0,3,0.00
2013-10-22,63,58,54,60,55,49,94,88,79,30.00,29.80,3,0,3,0.00
2013-10-23,62,59,58,58,57,56,96,94,81,29.80,29.68,10,1,10,0.00
2013-10-28,63,57,55,56,54,53,95,91,79,30.25,30.20,1,0,1,0.00
2013-10-29,71,59,49,58,54,48,97,84,61,30.33,30.23,8,0,8,0.00
2013-10-30,72,61,53,61,57,52,96,86,62,30.28,30.15,4,0,4,0.00
2013-10-31,75,66,56,64,58,54,96,79,57,30.19,29.92,13,1,13,0.00
2013-11-1,73,68,63,68,65,61,96,90,76,29.93,29.67,12,2,12,1.24
2013-11-2,69,61,51,62,53,44,97,76,44,29.93,29.68,24,1,24,0.00
2013-11-3,62,52,44,47,40,36,87,64,41,30.35,29.92,9,2,16,0.00
2013-11-4,54,46,39,39,34,31,84,65,43,30.54,30.35,15,1,15,0.00
2013-11-5,57,49,38,51,43,34,87,81,70,30.53,30.41,11,1,11,0.00
2013-11-6,70,58,46,58,52,45,97,84,62,30.42,30.10,10,1,10,0.00
2013-11-7,69,61,46,64,55,34,97,82,52,30.11,29.90,16,2,16,0.11
2013-11-8,56,47,37,37,31,26,81,55,32,30.32,30.08,13,2,13,0.00
2013-11-9,58,48,33,39,33,28,90,57,35,30.37,30.18,8,0,8,0.00
2013-11-10,71,56,42,45,37,30,80,52,27,30.22,30.05,11,1,11,0.00
2013-11-11,59,48,36,35,31,28,81,53,35,30.34,30.13,11,1,11,0.00
2013-11-12,61,45,35,40,34,19,91,67,42,30.41,30.05,19,2,19,0.01
2013-11-13,44,35,27,27,20,16,84,55,34,30.53,30.40,16,2,16,0.00
2013-11-14,57,42,29,26,24,22,84,54,29,30.48,30.34,8,1,8,0.00
2013-11-15,62,51,38,51,39,22,86,64,45,30.35,30.20,5,0,5,0.00
2013-11-16,68,58,52,59,54,50,96,87,71,30.26,30.18,5,1,8,0.00
2013-11-17,72,62,53,66,59,52,97,89,70,30.20,29.89,9,1,9,0.13
2013-11-18,75,67,56,67,55,32,96,68,37,29.94,29.78,21,2,21,0.04
2013-11-19,56,49,43,32,30,27,60,47,36,30.30,29.94,16,2,16,0.00
2013-11-20,51,45,38,40,34,29,84,65,54,30.43,30.30,17,3,17,0.00
2013-11-21,62,51,43,50,44,39,89,79,64,30.48,30.37,10,1,10,0.00
2013-11-22,71,60,48,62,55,46,95,84,71,30.38,30.08,8,1,8,0.05
2013-11-23,62,56,43,60,46,22,97,72,40,30.16,30.02,13,2,13,0.03
2013-11-24,43,33,26,25,10,1,50,38,24,30.54,30.16,20,4,20,0.00
2013-11-25,42,32,22,22,11,7,68,44,24,30.60,30.38,11,1,11,0.00
2013-11-26,66,48,36,65,40,15,97,77,42,30.38,29.55,20,3,20,0.76
2013-11-27,66,41,30,65,38,19,97,88,59,30.17,29.48,21,6,21,1.45
2013-11-28,44,34,23,25,20,16,80,60,40,30.50,30.16,17,2,17,0.00
2013-11-29,50,38,27,29,26,22,89,63,40,30.63,30.48,14,1,14,0.00
2013-11-30,49,38,29,35,30,24,85,73,58,30.63,30.36,11,2,11,0.00
2013-12-1,58,44,30,44,36,28,94,76,49,30.37,30.02,5,0,6,0.00
2013-12-2,60,49,42,47,42,38,93,79,51,30.02,29.81,8,0,8,0.00
2013-12-3,56,49,40,48,43,36,89,79,65,29.99,29.86,8,1,8,0.00
2013-12-4,64,57,52,58,53,47,96,88,77,30.09,29.98,9,1,9,0.00
2013-12-5,66,60,54,64,58,52,97,95,91,30.13,30.03,9,1,9,0.03
2013-12-6,78,70,65,66,64,62,94,81,66,30.08,29.96,18,4,18,0.00
2013-12-7,69,50,42,65,46,33,95,85,70,30.44,29.98,21,4,21,0.22
2013-12-8,42,36,34,34,32,30,96,89,68,30.46,30.29,17,3,17,0.16
2013-12-9,46,40,34,46,39,33,98,97,96,30.29,30.06,7,0,7,0.20
2013-12-10,48,44,30,48,42,28,98,91,68,30.33,29.90,19,2,19,0.62
2013-12-11,48,37,28,30,27,23,93,67,42,30.47,30.29,7,1,7,0.00
2013-12-12,44,36,29,30,22,13,86,60,30,30.42,30.27,13,2,13,0.00
2013-12-13,51,38,26,30,24,18,85,58,32,30.41,30.28,10,1,10,0.00
2013-12-14,47,42,39,43,36,25,96,79,49,30.30,29.76,16,2,16,0.88
2013-12-15,53,44,37,46,38,29,97,81,55,30.08,29.70,15,2,15,0.03
2013-12-16,56,43,31,38,33,28,90,70,47,30.18,30.07,6,1,9,0.00
2013-12-17,62,50,36,40,37,33,89,63,39,30.12,29.88,19,2,19,0.00
2013-12-18,49,42,37,39,23,18,76,48,29,30.30,30.02,18,3,18,0.00
2013-12-19,60,44,37,29,24,20,56,46,25,30.33,30.24,13,2,13,0.00
2013-12-20,60,59,57,50,50,50,77,73,68,30.16,30.15,5,1,5,0.00
2013-12-21,73,63,53,66,58,49,92,83,69,30.15,30.04,13,2,13,0.00
2013-12-22,77,71,65,68,66,63,94,83,65,30.10,30.01,21,4,21,0.01
2013-12-23,69,58,47,67,56,40,96,93,79,30.14,29.98,24,3,24,1.43
2013-12-24,47,41,30,41,31,15,93,66,49,30.45,30.10,17,4,17,0.00
2013-12-25,40,30,24,21,15,10,75,53,34,30.55,30.39,15,1,15,0.00
2013-12-26,50,37,29,37,30,21,92,77,56,30.41,30.25,8,1,8,0.01
2013-12-27,51,41,32,26,24,20,68,51,33,30.46,30.36,7,1,7,0.00
2013-12-28,60,45,28,34,29,25,92,57,28,30.41,30.15,4,0,7,0.00
2013-12-29,64,50,44,63,48,32,98,92,50,30.15,29.69,14,3,18,2.03
2013-12-30,54,46,38,45,41,36,98,84,61,30.14,29.92,9,1,9,0.01
2013-12-31,50,43,38,38,32,24,88,64,37,30.35,30.10,12,2,14,0.00
2014-1-1,50,41,33,34,28,24,89,62,38,30.42,30.15,9,0,9,0.00
2014-1-2,48,44,40,46,40,32,96,84,63,30.15,29.57,36,2,36,0.29